TJIG/SIG METAR and TAF weather

Enter ICAO airport designator
Station Type Date Time Source
TJIG METAR 2020/09/18 22:45 UTC NOAA

TJIG 182245Z 05005KT 10SM SCT030 SCT060 29/24 A2983


Station Type Date Time Source
TJIG Decoded METAR 2020/09/18 22:45 UTC NOAA

Station name not available
Sep 18, 2020 - 06:45 PM EDT / 2020.09.18 2245 UTC
Wind: from the NE (050 degrees) at 6 MPH (5 KT):0
Visibility: 10 mile(s):0
Sky conditions: partly cloudy
Temperature: 84 F (29 C)
Dew Point: 75 F (24 C)
Relative Humidity: 74%
Pressure (altimeter): 29.83 in. Hg (1010 hPa)
ob: TJIG 182245Z 05005KT 10SM SCT030 SCT060 29/24 A2983
cycle: 23

Station Type Date Time Source
TJIG TAF UTC NOAA

Error!

Example: see airport list